Time;durP1;ratioP1;P1;durP2;ratioP2;P2;SDS_P1;SDS_P2;PMS_P1;PMS_P2;Temp;Humidity;BMP_temperature;BMP_pressure;BME280_temperature;BME280_humidity;BME280_pressure;Samples;Min_cycle;Max_cycle;Signal;HPM_P1;HPM_P2
2021/04/27 00:01:28;;;;;;;0.17;0.17;;;11.80;94.20;;;;;;5002517;28;20037;-86
2021/04/27 00:03:54;;;;;;;0.30;0.30;;;11.80;94.20;;;;;;5003945;28;20030;-86
2021/04/27 00:06:20;;;;;;;1.00;0.98;;;11.80;94.40;;;;;;5002063;28;20037;-86
2021/04/27 00:08:46;;;;;;;0.20;0.20;;;11.80;94.50;;;;;;4994359;28;20467;-87
2021/04/27 00:11:12;;;;;;;0.45;0.45;;;11.70;94.40;;;;;;5005975;28;20811;-87
2021/04/27 00:13:39;;;;;;;0.15;0.15;;;11.80;94.40;;;;;;5001811;28;20030;-86
2021/04/27 00:16:06;;;;;;;0.20;0.20;;;11.70;94.50;;;;;;4991937;28;20058;-86
2021/04/27 00:18:32;;;;;;;0.75;0.75;;;11.80;94.90;;;;;;5000280;28;20065;-86
2021/04/27 00:20:58;;;;;;;0.10;0.10;;;11.80;94.50;;;;;;4997401;28;20035;-87
2021/04/27 00:23:24;;;;;;;0.10;0.10;;;11.70;94.60;;;;;;4998478;28;20449;-87
2021/04/27 00:25:50;;;;;;;0.08;0.08;;;11.70;94.90;;;;;;4992027;28;20129;-86
2021/04/27 00:28:16;;;;;;;8.85;0.55;;;11.60;94.70;;;;;;5000420;28;20489;-86
2021/04/27 00:30:42;;;;;;;1.17;1.08;;;11.70;95.40;;;;;;4998975;28;20053;-86
2021/04/27 00:33:08;;;;;;;0.85;0.85;;;11.70;95.20;;;;;;4993071;28;20854;-86
2021/04/27 00:35:35;;;;;;;0.38;0.38;;;11.60;95.00;;;;;;5005779;28;20034;-86
2021/04/27 00:38:02;;;;;;;0.10;0.10;;;11.50;95.10;;;;;;5001425;28;20025;-86
2021/04/27 00:40:28;;;;;;;0.05;0.03;;;11.50;95.50;;;;;;4999491;28;20036;-85
2021/04/27 00:42:54;;;;;;;0.00;0.00;;;11.40;95.30;;;;;;4995917;28;20928;-85
2021/04/27 00:45:22;;;;;;;0.20;0.20;;;11.30;95.40;;;;;;5000998;28;20050;-85
2021/04/27 00:47:49;;;;;;;0.10;0.10;;;11.20;95.80;;;;;;5005680;28;20078;-85
2021/04/27 00:50:18;;;;;;;0.47;0.47;;;11.00;96.40;;;;;;4999059;28;20053;-85
2021/04/27 00:52:45;;;;;;;0.17;0.17;;;10.80;97.00;;;;;;5005006;28;20079;-86
2021/04/27 00:55:12;;;;;;;0.17;0.17;;;10.80;97.30;;;;;;4989441;28;20045;-85
2021/04/27 00:57:39;;;;;;;0.10;0.10;;;10.90;97.10;;;;;;5006537;28;20034;-86
2021/04/27 01:00:10;;;;;;;0.32;0.32;;;10.90;97.30;;;;;;4996683;28;20034;-86
2021/04/27 01:02:36;;;;;;;0.10;0.10;;;11.00;96.80;;;;;;4992719;28;20112;-86
2021/04/27 01:05:30;;;;;;;0.50;0.50;;;11.10;97.20;;;;;;4995485;28;20056;-86
2021/04/27 01:08:13;;;;;;;2.97;0.65;;;11.10;97.10;;;;;;4999022;28;20069;-86
2021/04/27 01:10:55;;;;;;;0.10;0.10;;;11.10;97.10;;;;;;4991491;28;20030;-87
2021/04/27 01:13:56;;;;;;;0.13;0.13;;;11.10;96.90;;;;;;5002320;28;20041;-87
2021/04/27 01:16:23;;;;;;;2.63;0.40;;;11.10;97.00;;;;;;5005729;28;20058;-87
2021/04/27 01:18:53;;;;;;;0.00;0.00;;;10.90;97.60;;;;;;5001759;28;20839;-87
2021/04/27 01:21:22;;;;;;;0.30;0.20;;;10.80;98.10;;;;;;4998062;28;20205;-86
2021/04/27 01:24:14;;;;;;;0.28;0.28;;;10.80;98.00;;;;;;4992932;28;20038;-86
2021/04/27 01:26:44;;;;;;;0.13;0.13;;;10.90;98.00;;;;;;4972305;28;20541;-86
2021/04/27 01:29:13;;;;;;;0.20;0.20;;;10.80;98.00;;;;;;4984315;28;20042;-86
2021/04/27 01:31:39;;;;;;;0.55;0.20;;;10.90;98.40;;;;;;4986918;28;20046;-86
2021/04/27 01:34:07;;;;;;;0.73;0.73;;;10.70;98.60;;;;;;4987420;28;20057;-86
2021/04/27 01:36:34;;;;;;;0.13;0.13;;;10.70;98.70;;;;;;4983726;28;20406;-85
2021/04/27 01:39:00;;;;;;;0.25;0.25;;;10.70;98.90;;;;;;4986871;28;20126;-85
2021/04/27 01:41:26;;;;;;;0.10;0.10;;;10.80;98.70;;;;;;4987810;28;20124;-85
2021/04/27 01:43:53;;;;;;;0.10;0.10;;;10.90;99.90;;;;;;4986615;28;20046;-85
2021/04/27 01:46:20;;;;;;;0.38;0.10;;;10.90;98.50;;;;;;4987561;28;20029;-85
2021/04/27 01:48:45;;;;;;;;;;;11.00;98.40;;;;;;4987198;28;20069;-86
2021/04/27 01:51:12;;;;;;;0.00;0.00;;;11.00;98.20;;;;;;4987123;28;19910;-85
2021/04/27 01:53:40;;;;;;;0.10;0.10;;;11.10;98.30;;;;;;4987582;28;20018;-86
2021/04/27 01:56:06;;;;;;;0.08;0.08;;;11.20;98.10;;;;;;4985886;28;20041;-87
2021/04/27 01:58:32;;;;;;;0.10;0.10;;;11.00;98.30;;;;;;4987120;28;20064;-86
2021/04/27 02:00:59;;;;;;;0.10;0.10;;;11.00;98.50;;;;;;4986038;28;20093;-86
2021/04/27 02:03:26;;;;;;;0.15;0.15;;;10.90;98.50;;;;;;4995602;28;20671;-86
2021/04/27 02:05:51;;;;;;;0.10;0.10;;;11.00;98.40;;;;;;4995695;28;20054;-86
2021/04/27 02:08:17;;;;;;;0.38;0.38;;;11.00;98.40;;;;;;4994865;28;20080;-86
2021/04/27 02:10:43;;;;;;;0.20;0.20;;;11.00;98.70;;;;;;5006641;28;20020;-86
2021/04/27 02:13:13;;;;;;;0.60;0.10;;;10.90;98.80;;;;;;5006677;28;20065;-86
2021/04/27 02:15:41;;;;;;;0.60;0.20;;;10.90;98.90;;;;;;5001202;28;20030;-86
2021/04/27 02:18:16;;;;;;;0.70;0.63;;;10.80;99.10;;;;;;5004710;28;20068;-86
2021/04/27 02:20:43;;;;;;;0.25;0.25;;;10.80;99.30;;;;;;5008982;28;20152;-86
2021/04/27 02:23:10;;;;;;;0.00;0.00;;;10.80;99.60;;;;;;5006767;28;20045;-86
2021/04/27 02:25:39;;;;;;;0.00;0.00;;;10.70;99.80;;;;;;5002533;28;20156;-86
2021/04/27 02:28:05;;;;;;;2.72;0.47;;;10.60;99.80;;;;;;5007861;28;20048;-86
2021/04/27 02:30:31;;;;;;;0.10;0.10;;;10.50;99.90;;;;;;4997780;28;20030;-86
2021/04/27 02:32:57;;;;;;;0.10;0.10;;;10.50;99.90;;;;;;4997285;28;20906;-87
2021/04/27 02:35:23;;;;;;;0.10;0.10;;;10.40;99.90;;;;;;5006017;28;20113;-87
2021/04/27 02:37:51;;;;;;;0.10;0.10;;;10.40;99.90;;;;;;4992757;28;20125;-87
2021/04/27 02:40:27;;;;;;;1.55;0.30;;;10.40;99.90;;;;;;5001086;28;20023;-86
2021/04/27 02:42:58;;;;;;;0.03;0.03;;;10.40;99.90;;;;;;4998624;28;20041;-87
2021/04/27 02:45:34;;;;;;;0.10;0.10;;;10.30;99.90;;;;;;4999002;28;20041;-86
2021/04/27 02:48:14;;;;;;;0.20;0.20;;;10.50;99.90;;;;;;5004340;28;20140;-86
2021/04/27 02:50:43;;;;;;;0.15;0.15;;;10.60;99.90;;;;;;5001057;28;20018;-86
2021/04/27 02:53:10;;;;;;;0.45;0.45;;;10.60;99.90;;;;;;5006545;28;20136;-86
2021/04/27 02:55:36;;;;;;;0.00;0.00;;;10.60;99.90;;;;;;5007933;28;20089;-86
2021/04/27 02:58:02;;;;;;;0.20;0.10;;;10.50;99.90;;;;;;4998841;28;20057;-86
2021/04/27 03:00:28;;;;;;;0.25;0.20;;;10.40;99.90;;;;;;4996892;28;20019;-86
2021/04/27 03:02:53;;;;;;;0.30;0.30;;;10.50;99.90;;;;;;5004949;28;20049;-86
2021/04/27 03:05:19;;;;;;;0.00;0.00;;;10.50;99.90;;;;;;4998146;28;20117;-86
2021/04/27 03:07:45;;;;;;;0.13;0.13;;;10.50;99.90;;;;;;5007340;28;20100;-86
2021/04/27 03:10:12;;;;;;;0.60;0.60;;;10.50;99.90;;;;;;5003970;28;20056;-86
2021/04/27 03:12:38;;;;;;;0.22;0.20;;;10.60;99.90;;;;;;4999792;28;20542;-86
2021/04/27 03:15:05;;;;;;;0.10;0.10;;;10.60;99.90;;;;;;4989748;28;20030;-86
2021/04/27 03:17:31;;;;;;;0.20;0.20;;;10.60;99.90;;;;;;4996349;28;20280;-86
2021/04/27 03:19:58;;;;;;;0.05;0.05;;;10.50;99.90;;;;;;5000538;28;20033;-86
2021/04/27 03:22:23;;;;;;;1.45;1.02;;;10.50;99.90;;;;;;5017414;28;20084;-86
2021/04/27 03:24:50;;;;;;;8.20;0.80;;;10.40;99.90;;;;;;4998164;28;20901;-85
2021/04/27 03:27:15;;;;;;;0.20;0.20;;;10.40;99.90;;;;;;5003755;28;20030;-86
2021/04/27 03:29:41;;;;;;;0.15;0.15;;;10.50;99.90;;;;;;5001613;28;20288;-86
2021/04/27 03:32:07;;;;;;;0.13;0.13;;;10.50;99.90;;;;;;5002148;28;20018;-85
2021/04/27 03:34:33;;;;;;;0.35;0.35;;;10.50;99.90;;;;;;5000628;28;20023;-85
2021/04/27 03:36:59;;;;;;;0.05;0.05;;;10.50;99.90;;;;;;5011522;28;20494;-86
2021/04/27 03:39:25;;;;;;;0.35;0.35;;;10.50;99.90;;;;;;5011598;28;20025;-86
2021/04/27 03:41:51;;;;;;;0.98;0.95;;;10.50;99.90;;;;;;5003094;28;20038;-86
2021/04/27 03:44:17;;;;;;;0.10;0.10;;;10.40;99.90;;;;;;5002086;28;20026;-86
2021/04/27 03:46:43;;;;;;;0.10;0.10;;;10.30;99.90;;;;;;5017197;28;20669;-85
2021/04/27 03:49:09;;;;;;;0.35;0.35;;;10.30;99.90;;;;;;5004207;28;20037;-86
2021/04/27 03:51:35;;;;;;;0.32;0.32;;;10.40;99.90;;;;;;5011674;28;20030;-85
2021/04/27 03:54:02;;;;;;;0.20;0.20;;;10.30;99.90;;;;;;5003738;28;20026;-86
2021/04/27 03:56:28;;;;;;;0.45;0.20;;;10.20;99.90;;;;;;5011043;28;20022;-85
2021/04/27 03:58:54;;;;;;;0.50;0.50;;;10.40;99.90;;;;;;5004538;28;20029;-86
2021/04/27 04:01:20;;;;;;;0.08;0.08;;;10.50;99.90;;;;;;5011344;28;20037;-86
2021/04/27 04:03:46;;;;;;;0.10;0.10;;;10.60;99.90;;;;;;5001498;28;20109;-86
2021/04/27 04:06:11;;;;;;;0.00;0.00;;;10.50;99.90;;;;;;5001674;28;20109;-86
2021/04/27 04:08:37;;;;;;;1.13;0.60;;;10.30;99.90;;;;;;5007230;28;20036;-86
2021/04/27 04:11:03;;;;;;;2.10;1.17;;;10.30;99.90;;;;;;5006448;28;20029;-86
2021/04/27 04:13:29;;;;;;;0.10;0.10;;;10.40;99.90;;;;;;4998975;28;20053;-87
2021/04/27 04:15:55;;;;;;;0.28;0.28;;;10.30;99.90;;;;;;5001461;28;20073;-87
2021/04/27 04:18:21;;;;;;;0.08;0.08;;;10.40;99.90;;;;;;5006848;28;20084;-86
2021/04/27 04:20:48;;;;;;;0.40;0.40;;;10.40;99.90;;;;;;5002987;28;20030;-86
2021/04/27 04:23:14;;;;;;;;;;;10.40;99.90;;;;;;4999789;28;20134;-86
2021/04/27 04:25:40;;;;;;;0.20;0.20;;;10.40;99.90;;;;;;4996048;28;20000;-86
2021/04/27 04:28:06;;;;;;;0.35;0.35;;;10.30;99.90;;;;;;4991635;28;20038;-86
2021/04/27 04:30:32;;;;;;;0.17;0.17;;;10.30;99.90;;;;;;5003625;28;20029;-85
2021/04/27 04:32:58;;;;;;;4.97;1.95;;;10.30;99.90;;;;;;5000974;28;20808;-86
2021/04/27 04:35:28;;;;;;;0.45;0.38;;;10.40;99.90;;;;;;5007124;28;20037;-86
2021/04/27 04:37:54;;;;;;;0.17;0.17;;;10.40;99.90;;;;;;5001893;28;20125;-86
2021/04/27 04:40:21;;;;;;;1.00;0.80;;;10.50;99.90;;;;;;4994681;28;20122;-86
2021/04/27 04:42:47;;;;;;;0.65;0.65;;;10.50;99.90;;;;;;5003836;28;20048;-86
2021/04/27 04:45:15;;;;;;;0.00;0.00;;;10.40;99.90;;;;;;5001198;28;20105;-86
2021/04/27 04:47:41;;;;;;;0.38;0.38;;;10.40;99.90;;;;;;5001636;28;20155;-86
2021/04/27 04:50:09;;;;;;;0.10;0.10;;;10.40;99.90;;;;;;4995769;28;20113;-87
2021/04/27 04:52:35;;;;;;;0.45;0.45;;;10.40;99.90;;;;;;5010357;28;20038;-88
2021/04/27 04:55:02;;;;;;;0.45;0.30;;;10.40;99.90;;;;;;5010241;28;20040;-86
2021/04/27 04:57:28;;;;;;;0.20;0.20;;;10.40;99.90;;;;;;4991094;28;20402;-86
2021/04/27 04:59:53;;;;;;;0.28;0.28;;;10.40;99.90;;;;;;4998969;28;20033;-85
2021/04/27 05:02:19;;;;;;;0.10;0.10;;;10.40;99.90;;;;;;4994551;28;20039;-87
2021/04/27 05:04:45;;;;;;;0.20;0.20;;;10.40;99.90;;;;;;5001515;28;20030;-87
2021/04/27 05:07:12;;;;;;;0.10;0.10;;;10.50;99.90;;;;;;5004714;28;20026;-86
2021/04/27 05:09:41;;;;;;;0.32;0.32;;;10.60;99.90;;;;;;4996397;28;20030;-86
2021/04/27 05:12:09;;;;;;;0.10;0.10;;;10.70;99.90;;;;;;5011543;28;20037;-85
2021/04/27 05:14:38;;;;;;;0.10;0.10;;;10.60;99.90;;;;;;5001563;28;20069;-85
2021/04/27 05:17:05;;;;;;;0.15;0.15;;;10.60;99.90;;;;;;5001125;28;20103;-87
2021/04/27 05:19:32;;;;;;;0.10;0.10;;;10.60;99.90;;;;;;5004766;28;20029;-86
2021/04/27 05:21:58;;;;;;;;;;;10.70;99.90;;;;;;5001838;28;20039;-86
2021/04/27 05:24:25;;;;;;;0.10;0.10;;;10.60;99.90;;;;;;5002408;28;20389;-86
2021/04/27 05:26:51;;;;;;;1.65;0.60;;;10.60;99.90;;;;;;5000388;28;20040;-86
2021/04/27 05:29:16;;;;;;;0.90;0.90;;;10.70;99.90;;;;;;5004913;28;20030;-86
2021/04/27 05:31:42;;;;;;;0.00;0.00;;;10.70;99.90;;;;;;4999585;28;20030;-87
2021/04/27 05:34:08;;;;;;;0.20;0.20;;;10.70;99.90;;;;;;5006574;28;20052;-86
2021/04/27 05:36:34;;;;;;;0.40;0.30;;;10.70;99.90;;;;;;5003457;28;20371;-85
2021/04/27 05:39:00;;;;;;;0.40;0.40;;;10.70;99.90;;;;;;5003254;28;20107;-87
2021/04/27 05:41:26;;;;;;;0.35;0.35;;;10.70;99.90;;;;;;5013636;28;20041;-87
2021/04/27 05:43:52;;;;;;;0.00;0.00;;;10.80;99.90;;;;;;4996618;28;20038;-88
2021/04/27 05:46:24;;;;;;;0.30;0.30;;;10.80;99.90;;;;;;4997603;28;20100;-88
2021/04/27 05:48:51;;;;;;;0.90;0.68;;;10.90;99.90;;;;;;4997326;28;20045;-87
2021/04/27 05:51:17;;;;;;;0.10;0.10;;;10.90;99.90;;;;;;5006628;28;20026;-86
2021/04/27 05:53:43;;;;;;;0.03;0.03;;;10.90;99.90;;;;;;5005626;28;20026;-86
2021/04/27 05:56:10;;;;;;;0.10;0.10;;;10.90;99.90;;;;;;5002180;28;20608;-86
2021/04/27 05:58:36;;;;;;;0.10;0.10;;;11.00;99.90;;;;;;5004565;28;20034;-86
2021/04/27 06:01:04;;;;;;;0.30;0.30;;;11.10;99.90;;;;;;4992947;28;20429;-84
2021/04/27 06:03:30;;;;;;;7.65;0.50;;;11.00;99.90;;;;;;4991082;28;20048;-84
2021/04/27 06:05:55;;;;;;;0.20;0.20;;;11.10;99.90;;;;;;4995657;28;20389;-85
2021/04/27 06:08:21;;;;;;;0.85;0.85;;;11.10;99.90;;;;;;4992120;28;20034;-86
2021/04/27 06:10:47;;;;;;;0.00;0.00;;;11.20;99.90;;;;;;5008344;28;20022;-83
2021/04/27 06:13:13;;;;;;;0.50;0.50;;;11.20;99.90;;;;;;5000881;28;20552;-83
2021/04/27 06:15:38;;;;;;;0.00;0.00;;;11.20;99.90;;;;;;5009698;28;20118;-83
2021/04/27 06:18:05;;;;;;;0.25;0.25;;;11.20;99.90;;;;;;5003351;28;20394;-83
2021/04/27 06:20:31;;;;;;;0.03;0.03;;;11.30;99.90;;;;;;4999711;28;20602;-83
2021/04/27 06:22:57;;;;;;;0.10;0.10;;;11.30;99.90;;;;;;4999358;28;20061;-82
2021/04/27 06:25:23;;;;;;;0.10;0.10;;;11.40;99.90;;;;;;4999145;28;20083;-82
2021/04/27 06:27:49;;;;;;;0.00;0.00;;;11.40;99.90;;;;;;5005036;28;20109;-82
2021/04/27 06:30:15;;;;;;;0.10;0.10;;;11.30;99.90;;;;;;5009518;28;20026;-85
2021/04/27 06:32:42;;;;;;;0.25;0.25;;;11.40;99.90;;;;;;5005950;28;20046;-84
2021/04/27 06:35:08;;;;;;;0.08;0.08;;;11.50;99.90;;;;;;5003610;28;20038;-83
2021/04/27 06:37:34;;;;;;;0.40;0.40;;;11.50;99.90;;;;;;5010600;28;20026;-83
2021/04/27 06:40:00;;;;;;;0.22;0.22;;;11.60;99.90;;;;;;5009339;28;20068;-84
2021/04/27 06:42:26;;;;;;;0.10;0.10;;;11.60;99.90;;;;;;5004384;28;20053;-85
2021/04/27 06:44:52;;;;;;;0.60;0.28;;;11.70;99.90;;;;;;5020675;28;20030;-85
2021/04/27 06:47:18;;;;;;;0.20;0.20;;;11.70;99.90;;;;;;5009098;28;20022;-86
2021/04/27 06:49:44;;;;;;;0.20;0.20;;;11.80;99.90;;;;;;5009569;28;20030;-84
2021/04/27 06:52:10;;;;;;;0.20;0.20;;;11.70;99.90;;;;;;4993044;28;20536;-85
2021/04/27 06:54:37;;;;;;;0.22;0.22;;;11.80;99.90;;;;;;4991839;28;20126;-85
2021/04/27 06:57:03;;;;;;;0.03;0.03;;;11.80;99.90;;;;;;4993926;28;20081;-84
2021/04/27 06:59:31;;;;;;;0.15;0.15;;;11.90;99.90;;;;;;5005149;28;20149;-86
2021/04/27 07:02:02;;;;;;;0.90;0.68;;;11.80;99.90;;;;;;4993020;28;20030;-82
2021/04/27 07:04:29;;;;;;;0.35;0.35;;;11.90;99.90;;;;;;5001773;28;20029;-84
2021/04/27 07:06:55;;;;;;;0.10;0.10;;;11.80;99.90;;;;;;4992810;28;20482;-85
2021/04/27 07:09:21;;;;;;;0.03;0.03;;;11.90;99.90;;;;;;4994247;28;20038;-84
2021/04/27 07:11:47;;;;;;;0.00;0.00;;;11.90;99.90;;;;;;5005609;28;20052;-85
2021/04/27 07:14:13;;;;;;;0.10;0.10;;;11.90;99.90;;;;;;5006679;28;20105;-84
2021/04/27 07:16:39;;;;;;;4.88;1.77;;;11.90;99.90;;;;;;5007399;28;20033;-85
2021/04/27 07:19:05;;;;;;;0.10;0.10;;;12.00;99.90;;;;;;5003082;28;20079;-84
2021/04/27 07:21:32;;;;;;;0.75;0.75;;;12.20;99.90;;;;;;4999768;28;20105;-84
2021/04/27 07:23:57;;;;;;;0.00;0.00;;;12.20;99.90;;;;;;5002498;28;20050;-84
2021/04/27 07:26:24;;;;;;;0.30;0.30;;;12.30;99.90;;;;;;4997639;28;20041;-84
2021/04/27 07:28:49;;;;;;;0.10;0.10;;;12.30;99.90;;;;;;5006843;28;20605;-84
2021/04/27 07:31:15;;;;;;;22.40;0.45;;;12.40;99.90;;;;;;4997389;28;20041;-84
2021/04/27 07:33:41;;;;;;;0.38;0.32;;;12.60;99.90;;;;;;5001695;28;20025;-84
2021/04/27 07:36:07;;;;;;;0.47;0.47;;;12.60;99.90;;;;;;5000684;28;20034;-84
2021/04/27 07:38:35;;;;;;;0.00;0.00;;;12.60;99.90;;;;;;4997265;28;20038;-83
2021/04/27 07:41:01;;;;;;;0.17;0.17;;;12.70;99.90;;;;;;4997844;28;20478;-84
2021/04/27 07:43:31;;;;;;;0.20;0.20;;;12.70;99.90;;;;;;5001966;28;20049;-83
2021/04/27 07:45:57;;;;;;;1.55;0.90;;;12.80;99.90;;;;;;4992327;28;20058;-84
2021/04/27 07:48:25;;;;;;;0.10;0.10;;;12.90;99.90;;;;;;4995918;28;20035;-84
2021/04/27 07:50:51;;;;;;;0.10;0.10;;;13.00;99.90;;;;;;5001370;28;20030;-84
2021/04/27 07:53:20;;;;;;;0.00;0.00;;;12.90;99.90;;;;;;4992242;28;20075;-84
2021/04/27 07:55:47;;;;;;;0.68;0.38;;;13.10;99.90;;;;;;5011866;28;20475;-84
2021/04/27 07:58:13;;;;;;;0.10;0.10;;;13.20;99.80;;;;;;5002236;28;20393;-84
2021/04/27 08:00:39;;;;;;;1.10;0.93;;;13.30;99.80;;;;;;5000204;28;20518;-85
2021/04/27 08:03:05;;;;;;;0.00;0.00;;;13.20;99.60;;;;;;5001563;28;20389;-84
2021/04/27 08:05:32;;;;;;;0.57;0.33;;;13.30;99.50;;;;;;4996749;28;20034;-85
2021/04/27 08:07:58;;;;;;;0.10;0.10;;;13.30;99.20;;;;;;5001578;28;20327;-84
2021/04/27 08:10:24;;;;;;;0.20;0.20;;;13.50;99.00;;;;;;5002552;28;20040;-85
2021/04/27 08:13:06;;;;;;;0.30;0.30;;;13.40;98.40;;;;;;5002507;28;20022;-84
2021/04/27 08:15:34;;;;;;;0.30;0.30;;;13.50;98.70;;;;;;5000578;28;20587;-84
2021/04/27 08:18:02;;;;;;;0.00;0.00;;;13.80;98.70;;;;;;5002506;28;20076;-84
2021/04/27 08:20:34;;;;;;;0.10;0.10;;;13.60;97.70;;;;;;5005069;28;20033;-84
2021/04/27 08:23:04;;;;;;;0.05;0.05;;;13.50;98.10;;;;;;5004964;28;20053;-85
2021/04/27 08:25:32;;;;;;;0.00;0.00;;;13.60;97.90;;;;;;5003940;28;20109;-84
2021/04/27 08:27:58;;;;;;;0.75;0.65;;;13.70;97.80;;;;;;5008181;28;20026;-84
2021/04/27 08:30:26;;;;;;;0.20;0.20;;;13.60;98.10;;;;;;5017323;28;20413;-85
2021/04/27 08:32:57;;;;;;;0.20;0.20;;;13.60;97.70;;;;;;5008769;28;20238;-84
2021/04/27 08:35:24;;;;;;;1.42;0.47;;;14.10;97.40;;;;;;5008512;28;20029;-85
2021/04/27 08:37:50;;;;;;;0.30;0.30;;;14.50;96.00;;;;;;5021033;28;20506;-85
2021/04/27 08:40:17;;;;;;;0.45;0.45;;;14.60;95.80;;;;;;4999335;28;20926;-85
2021/04/27 08:42:50;;;;;;;0.13;0.13;;;15.00;95.30;;;;;;4998854;28;20080;-84
2021/04/27 08:45:17;;;;;;;0.25;0.25;;;15.30;95.60;;;;;;5004512;28;20033;-84
2021/04/27 08:47:44;;;;;;;0.45;0.40;;;15.20;95.40;;;;;;4998953;28;20445;-84
2021/04/27 08:50:12;;;;;;;0.30;0.30;;;15.10;96.10;;;;;;4999020;28;20057;-85
2021/04/27 08:52:39;;;;;;;0.73;0.73;;;15.20;95.60;;;;;;5003549;28;20037;-85
2021/04/27 08:55:06;;;;;;;0.20;0.20;;;14.90;96.10;;;;;;5000428;28;20022;-85
2021/04/27 08:57:34;;;;;;;0.10;0.10;;;15.10;95.90;;;;;;5003982;28;20054;-84
2021/04/27 09:00:03;;;;;;;0.00;0.00;;;14.80;96.30;;;;;;4996492;28;20048;-84
2021/04/27 09:02:31;;;;;;;0.00;0.00;;;14.90;96.10;;;;;;5002355;28;20625;-85
2021/04/27 09:04:58;;;;;;;0.22;0.22;;;15.20;95.50;;;;;;5002810;28;20029;-86
2021/04/27 09:07:28;;;;;;;1.00;0.30;;;15.50;94.80;;;;;;5002580;28;20034;-85
2021/04/27 09:09:59;;;;;;;0.00;0.00;;;15.40;94.60;;;;;;5002273;28;20171;-86
2021/04/27 09:12:32;;;;;;;1.05;0.77;;;15.30;95.60;;;;;;4999174;28;20402;-85
2021/04/27 09:15:01;;;;;;;1.65;0.52;;;15.30;95.50;;;;;;4995488;28;20045;-85
2021/04/27 09:17:30;;;;;;;0.25;0.25;;;15.40;95.20;;;;;;4998524;28;20040;-85
2021/04/27 09:19:58;;;;;;;0.40;0.40;;;15.50;94.70;;;;;;5001409;28;20053;-85
2021/04/27 09:22:28;;;;;;;0.10;0.10;;;15.40;94.20;;;;;;5001573;28;20033;-85
2021/04/27 09:25:06;;;;;;;0.10;0.10;;;15.80;94.40;;;;;;4998069;28;20049;-85
2021/04/27 09:27:39;;;;;;;0.20;0.20;;;15.80;94.20;;;;;;5000978;28;20022;-85
2021/04/27 09:30:24;;;;;;;1.20;0.95;;;16.20;93.50;;;;;;5004629;28;20025;-85
2021/04/27 09:33:09;;;;;;;0.13;0.13;;;15.80;99.40;;;;;;4998928;28;20036;-85
2021/04/27 09:35:41;;;;;;;0.25;0.25;;;16.60;91.80;;;;;;5009040;28;20026;-85
2021/04/27 09:38:27;;;;;;;0.10;0.10;;;16.80;92.20;;;;;;5002030;28;20022;-85
2021/04/27 09:41:02;;;;;;;0.57;0.57;;;17.40;91.40;;;;;;5005455;28;20029;-85
2021/04/27 09:43:35;;;;;;;0.40;0.40;;;17.80;89.40;;;;;;4998576;28;20026;-84
2021/04/27 09:46:07;;;;;;;0.10;0.10;;;18.20;86.80;;;;;;4996806;28;20025;-85
2021/04/27 09:48:45;;;;;;;0.08;0.08;;;18.10;90.20;;;;;;5021165;28;20034;-85
2021/04/27 09:51:15;;;;;;;1.35;0.82;;;17.80;88.10;;;;;;5000767;28;20402;-85
2021/04/27 09:53:51;;;;;;;0.10;0.10;;;18.70;87.50;;;;;;4993708;28;20038;-85
2021/04/27 09:56:49;;;;;;;0.30;0.30;;;18.70;85.10;;;;;;4998018;28;20028;-85
2021/04/27 09:59:25;;;;;;;11.60;0.57;;;17.90;87.30;;;;;;4999042;28;20057;-85
2021/04/27 10:02:05;;;;;;;0.52;0.40;;;18.80;83.60;;;;;;5001001;28;20034;-85
2021/04/27 10:04:32;;;;;;;0.17;0.17;;;18.90;81.60;;;;;;5002908;28;20026;-84
2021/04/27 10:07:03;;;;;;;1.55;0.35;;;19.80;79.30;;;;;;5002395;28;20049;-85
2021/04/27 10:09:32;;;;;;;0.00;0.00;;;19.80;77.30;;;;;;5007478;28;20100;-85
2021/04/27 10:12:00;;;;;;;0.10;0.10;;;19.10;81.90;;;;;;4996246;28;20117;-85
2021/04/27 10:14:27;;;;;;;0.10;0.10;;;20.60;75.90;;;;;;5004146;28;20029;-85
2021/04/27 10:16:55;;;;;;;0.00;0.00;;;20.90;75.80;;;;;;5001981;28;20460;-84
2021/04/27 10:19:22;;;;;;;0.10;0.10;;;20.40;78.40;;;;;;5020013;28;20124;-85
2021/04/27 10:21:52;;;;;;;1.65;0.60;;;20.00;78.70;;;;;;5002908;28;20044;-85
2021/04/27 10:24:23;;;;;;;0.40;0.40;;;20.90;74.20;;;;;;4987170;28;20073;-85
2021/04/27 10:26:50;;;;;;;0.10;0.10;;;21.00;73.50;;;;;;5003140;28;20175;-84
2021/04/27 10:29:27;;;;;;;0.32;0.32;;;20.80;76.40;;;;;;5002440;28;20061;-85
2021/04/27 10:32:26;;;;;;;0.47;0.38;;;21.80;71.10;;;;;;4995480;28;20037;-84
2021/04/27 10:34:58;;;;;;;1.08;0.63;;;23.00;68.30;;;;;;4907807;29;20042;-86
2021/04/27 10:37:26;;;;;;;0.15;0.10;;;22.40;68.30;;;;;;4920978;29;20055;-85
2021/04/27 10:39:52;;;;;;;0.00;0.00;;;22.10;71.50;;;;;;4907670;29;20059;-86
2021/04/27 10:42:19;;;;;;;;;;;22.20;70.00;;;;;;4924317;29;20028;-86
2021/04/27 10:44:59;;;;;;;;;;;22.40;67.70;;;;;;4923950;29;20458;-85
2021/04/27 10:47:28;;;;;;;0.00;0.00;;;21.90;65.50;;;;;;4922798;29;20276;-84
2021/04/27 10:49:57;;;;;;;0.32;0.32;;;21.90;65.80;;;;;;4920159;29;20043;-85
2021/04/27 10:52:34;;;;;;;0.15;0.15;;;22.00;68.40;;;;;;4917586;29;20031;-86
2021/04/27 10:55:18;;;;;;;;;;;21.20;70.50;;;;;;4918390;29;20524;-84
2021/04/27 10:57:47;;;;;;;0.00;0.00;;;21.90;67.90;;;;;;4919141;29;19955;-86
2021/04/27 11:00:33;;;;;;;0.00;0.00;;;22.20;69.60;;;;;;4926898;29;20035;-85
2021/04/27 11:03:22;;;;;;;0.57;0.40;;;21.40;71.50;;;;;;4920582;29;20103;-86
2021/04/27 11:06:09;;;;;;;0.00;0.00;;;21.00;69.10;;;;;;4921699;29;20303;-86
2021/04/27 11:08:53;;;;;;;0.00;0.00;;;21.20;67.40;;;;;;4918844;29;20032;-86
2021/04/27 11:11:34;;;;;;;0.30;0.30;;;21.40;66.90;;;;;;4994462;28;20046;-88
2021/04/27 11:14:30;;;;;;;0.00;0.00;;;20.90;69.50;;;;;;5004344;28;20040;-86
2021/04/27 11:17:33;;;;;;;1.83;0.75;;;20.90;71.00;;;;;;4992852;28;20069;-86
2021/04/27 11:20:01;;;;;;;0.00;0.00;;;20.70;70.00;;;;;;5002842;28;20038;-86
2021/04/27 11:22:31;;;;;;;0.30;0.30;;;20.80;69.70;;;;;;5007894;28;20121;-85
2021/04/27 11:25:01;;;;;;;0.35;0.35;;;20.90;68.70;;;;;;5007938;28;20041;-86
2021/04/27 11:27:38;;;;;;;0.20;0.20;;;20.50;68.80;;;;;;5022888;28;20136;-86
2021/04/27 11:30:15;;;;;;;0.43;0.43;;;20.80;67.40;;;;;;5005779;28;20022;-86
2021/04/27 11:32:44;;;;;;;9.65;2.72;;;20.70;68.40;;;;;;5002205;28;20022;-85
2021/04/27 11:35:17;;;;;;;0.13;0.13;;;20.00;70.10;;;;;;5006340;28;20142;-86
2021/04/27 11:37:47;;;;;;;0.93;0.38;;;19.70;70.70;;;;;;4998766;28;20057;-85
2021/04/27 11:40:25;;;;;;;0.00;0.00;;;20.20;69.40;;;;;;5000200;28;20169;-85
2021/04/27 11:43:12;;;;;;;0.00;0.00;;;20.30;68.40;;;;;;5006120;28;20122;-85
2021/04/27 11:45:44;;;;;;;0.08;0.08;;;20.00;71.10;;;;;;4995844;28;20038;-85
2021/04/27 11:48:18;;;;;;;12.65;0.45;;;19.60;71.80;;;;;;5007002;28;20089;-86
2021/04/27 11:50:44;;;;;;;0.22;0.15;;;19.80;70.30;;;;;;5005827;28;21487;-86
2021/04/27 11:53:16;;;;;;;;;;;20.20;68.70;;;;;;5005600;28;20836;-85
2021/04/27 11:55:49;;;;;;;1.73;0.82;;;20.10;71.10;;;;;;4998334;28;19914;-85
2021/04/27 11:58:18;;;;;;;0.00;0.00;;;19.90;70.90;;;;;;4998318;28;20121;-86
2021/04/27 12:00:52;;;;;;;0.00;0.00;;;20.50;68.70;;;;;;5005726;28;20030;-86
2021/04/27 12:03:23;;;;;;;0.00;0.00;;;20.50;69.20;;;;;;5001810;28;20045;-86
2021/04/27 12:05:56;;;;;;;0.08;0.03;;;20.40;68.30;;;;;;5005349;28;20445;-86
2021/04/27 12:08:31;;;;;;;1.02;0.40;;;20.70;66.90;;;;;;5006553;28;20121;-86
2021/04/27 12:11:10;;;;;;;1.17;1.08;;;21.00;67.40;;;;;;5006636;28;20034;-86
2021/04/27 12:14:08;;;;;;;0.20;0.20;;;20.60;67.40;;;;;;4995293;28;20101;-86
2021/04/27 12:16:38;;;;;;;;;;;20.50;68.20;;;;;;5011155;28;20073;-85
2021/04/27 12:19:21;;;;;;;0.28;0.28;;;20.60;67.00;;;;;;5011528;28;19956;-86
2021/04/27 12:22:07;;;;;;;2.97;0.57;;;20.20;70.30;;;;;;5011345;28;20486;-85
2021/04/27 12:24:36;;;;;;;0.00;0.00;;;20.60;69.10;;;;;;5005780;28;20053;-86
2021/04/27 12:27:10;;;;;;;0.47;0.47;;;20.70;66.80;;;;;;5011037;28;20029;-85
2021/04/27 12:29:53;;;;;;;0.52;0.52;;;21.20;65.50;;;;;;5003319;28;20494;-86
2021/04/27 12:32:27;;;;;;;0.05;0.03;;;21.10;65.70;;;;;;5009165;28;20189;-86
2021/04/27 12:35:06;;;;;;;0.22;0.10;;;21.70;63.60;;;;;;5010893;28;20022;-86
2021/04/27 12:37:34;;;;;;;0.15;0.15;;;21.10;64.90;;;;;;5002600;28;20126;-86
2021/04/27 12:40:03;;;;;;;0.00;0.00;;;21.40;65.00;;;;;;5002133;28;20098;-86
2021/04/27 12:42:31;;;;;;;0.10;0.10;;;20.90;66.70;;;;;;5011378;28;20026;-86
2021/04/27 12:45:01;;;;;;;0.00;0.00;;;20.90;66.60;;;;;;5004423;28;20038;-86
2021/04/27 12:47:35;;;;;;;0.10;0.10;;;20.70;68.00;;;;;;5011995;28;20045;-84
2021/04/27 12:50:12;;;;;;;0.00;0.00;;;20.90;65.80;;;;;;4995542;28;20028;-85
2021/04/27 12:52:43;;;;;;;0.22;0.20;;;20.70;64.50;;;;;;5007805;28;20049;-85
2021/04/27 12:55:19;;;;;;;0.00;0.00;;;21.50;62.70;;;;;;4999147;28;20057;-85
2021/04/27 12:57:49;;;;;;;0.05;0.05;;;21.70;63.70;;;;;;4993302;28;20383;-85
2021/04/27 13:00:19;;;;;;;0.22;0.15;;;21.20;65.80;;;;;;4996183;28;20018;-85